Time;durP1;ratioP1;P1;durP2;ratioP2;P2;SDS_P1;SDS_P2;PMS_P1;PMS_P2;Temp;Humidity;BMP_temperature;BMP_pressure;BME280_temperature;BME280_humidity;BME280_pressure;Samples;Min_cycle;Max_cycle;Signal;HPM_P1;HPM_P2
2021/06/16 00:02:01;;;;;;;3.50;1.25;;;;;23.20;101687.00;;;;5110956;28;20200;-78
2021/06/16 00:04:29;;;;;;;1.80;1.30;;;;;23.20;101684.00;;;;5110099;28;20193;-78
2021/06/16 00:06:56;;;;;;;3.75;1.75;;;;;23.20;101686.00;;;;5109834;28;20216;-78
2021/06/16 00:09:23;;;;;;;2.33;1.35;;;;;23.20;101690.00;;;;5109575;28;20190;-78
2021/06/16 00:11:50;;;;;;;3.67;1.52;;;;;23.20;101686.00;;;;5109951;28;20198;-78
2021/06/16 00:14:18;;;;;;;2.63;1.80;;;;;23.20;101680.00;;;;5109430;28;20208;-77
2021/06/16 00:16:46;;;;;;;1.95;1.23;;;;;23.20;101681.00;;;;5109890;28;20198;-78
2021/06/16 00:19:15;;;;;;;2.33;1.30;;;;;23.10;101676.00;;;;5109806;28;20193;-78
2021/06/16 00:21:42;;;;;;;2.33;1.58;;;;;23.20;101676.00;;;;5109938;28;20201;-78
2021/06/16 00:24:10;;;;;;;2.97;1.80;;;;;23.10;101677.00;;;;5103607;28;20706;-77
2021/06/16 00:26:37;;;;;;;5.13;1.58;;;;;23.10;101675.00;;;;5109231;28;20611;-77
2021/06/16 00:29:04;;;;;;;2.28;1.27;;;;;23.10;101677.00;;;;5110646;28;20592;-77
2021/06/16 00:31:31;;;;;;;4.78;2.47;;;;;23.10;101674.00;;;;5108578;28;20766;-78
2021/06/16 00:33:59;;;;;;;3.05;1.45;;;;;23.10;101675.00;;;;5110085;28;20197;-77
2021/06/16 00:36:27;;;;;;;3.15;1.60;;;;;23.10;101663.00;;;;5109001;28;20202;-78
2021/06/16 00:38:55;;;;;;;4.00;1.23;;;;;23.10;101659.00;;;;5109761;28;20254;-77
2021/06/16 00:41:22;;;;;;;2.25;1.20;;;;;23.10;101662.00;;;;5108557;28;20228;-78
2021/06/16 00:43:49;;;;;;;3.30;1.83;;;;;23.10;101662.00;;;;5109465;28;20777;-78
2021/06/16 00:46:17;;;;;;;3.17;1.60;;;;;23.10;101660.00;;;;5109907;28;20198;-78
2021/06/16 00:48:44;;;;;;;4.97;1.63;;;;;23.10;101664.00;;;;5109286;28;20303;-78
2021/06/16 00:51:11;;;;;;;3.58;1.67;;;;;23.10;101663.00;;;;5108920;28;20201;-78
2021/06/16 00:53:40;;;;;;;2.28;1.33;;;;;23.10;101664.00;;;;5108918;28;20207;-78
2021/06/16 00:56:07;;;;;;;3.90;1.77;;;;;23.10;101657.00;;;;5107157;28;20240;-77
2021/06/16 00:58:35;;;;;;;3.63;1.60;;;;;23.10;101653.00;;;;5109044;28;20201;-78
2021/06/16 01:01:09;;;;;;;3.08;1.48;;;;;23.00;101652.00;;;;5108231;28;20315;-78
2021/06/16 01:03:43;;;;;;;4.18;1.92;;;;;23.00;101645.00;;;;5108202;28;20200;-78
2021/06/16 01:06:18;;;;;;;3.42;1.73;;;;;23.00;101645.00;;;;5108736;28;20193;-77
2021/06/16 01:08:57;;;;;;;2.95;1.20;;;;;23.00;101643.00;;;;5108520;28;20291;-77
2021/06/16 01:11:25;;;;;;;4.63;1.60;;;;;23.00;101641.00;;;;5107506;28;20201;-78
2021/06/16 01:13:54;;;;;;;4.70;1.33;;;;;23.00;101643.00;;;;5107932;28;20702;-78
2021/06/16 01:16:28;;;;;;;3.00;1.55;;;;;23.00;101647.00;;;;5107679;28;20735;-78
2021/06/16 01:19:00;;;;;;;4.68;1.60;;;;;23.00;101644.00;;;;5108423;28;20228;-78
2021/06/16 01:21:28;;;;;;;3.72;1.40;;;;;23.00;101640.00;;;;5106754;28;20225;-78
2021/06/16 01:24:06;;;;;;;2.05;1.42;;;;;22.90;101641.00;;;;5099070;28;20631;-77
2021/06/16 01:26:37;;;;;;;2.92;1.85;;;;;22.90;101642.00;;;;5096983;28;20201;-78
2021/06/16 01:29:11;;;;;;;3.35;1.30;;;;;22.90;101639.00;;;;5102639;28;20609;-77
2021/06/16 01:31:41;;;;;;;2.22;1.52;;;;;22.90;101638.00;;;;5108337;28;20256;-78
2021/06/16 01:34:10;;;;;;;2.25;1.40;;;;;22.90;101643.00;;;;5109156;28;20190;-77
2021/06/16 01:36:40;;;;;;;1.55;1.35;;;;;22.90;101638.00;;;;5108841;28;20239;-78
2021/06/16 01:39:09;;;;;;;3.60;1.30;;;;;22.90;101637.00;;;;5108091;28;20186;-77
2021/06/16 01:41:40;;;;;;;3.15;1.30;;;;;22.90;101627.00;;;;5108273;28;20225;-77
2021/06/16 01:44:08;;;;;;;2.30;1.40;;;;;22.90;101622.00;;;;5108993;28;20186;-77
2021/06/16 01:46:36;;;;;;;3.25;1.52;;;;;22.90;101621.00;;;;5108484;28;20197;-77
2021/06/16 01:49:05;;;;;;;5.20;1.60;;;;;22.80;101615.00;;;;5107918;28;20205;-77
2021/06/16 01:51:34;;;;;;;6.85;1.73;;;;;22.80;101613.00;;;;5109109;28;20198;-78
2021/06/16 01:54:02;;;;;;;3.60;1.45;;;;;22.80;101615.00;;;;5108781;28;20199;-78
2021/06/16 01:56:32;;;;;;;2.53;1.65;;;;;22.80;101615.00;;;;5102013;28;20213;-78
2021/06/16 01:59:03;;;;;;;4.03;1.65;;;;;22.80;101612.00;;;;5108121;28;20197;-78
2021/06/16 02:01:31;;;;;;;3.63;1.48;;;;;22.80;101613.00;;;;5107885;28;20222;-78
2021/06/16 02:03:58;;;;;;;3.00;1.27;;;;;22.80;101614.00;;;;5108476;28;20201;-78
2021/06/16 02:06:29;;;;;;;8.10;1.60;;;;;22.70;101613.00;;;;5108493;28;20292;-78
2021/06/16 02:08:59;;;;;;;2.10;1.20;;;;;22.70;101614.00;;;;5108223;28;20209;-78
2021/06/16 02:11:29;;;;;;;2.97;1.55;;;;;22.70;101615.00;;;;5107911;28;20210;-78
2021/06/16 02:13:58;;;;;;;3.05;1.50;;;;;22.70;101613.00;;;;5108055;28;20198;-78
2021/06/16 02:16:34;;;;;;;5.13;1.33;;;;;22.70;101612.00;;;;5106896;28;20221;-78
2021/06/16 02:19:05;;;;;;;1.55;1.30;;;;;22.70;101618.00;;;;5108207;28;20655;-78
2021/06/16 02:21:32;;;;;;;2.33;1.20;;;;;22.70;101608.00;;;;5107860;28;20221;-77
2021/06/16 02:24:00;;;;;;;2.58;1.40;;;;;22.70;101614.00;;;;5107561;28;20227;-78
2021/06/16 02:26:27;;;;;;;3.13;1.25;;;;;22.70;101609.00;;;;5108310;28;20193;-77
2021/06/16 02:28:54;;;;;;;4.70;1.80;;;;;22.70;101600.00;;;;5109466;28;20201;-78
2021/06/16 02:31:22;;;;;;;4.50;1.50;;;;;22.60;101593.00;;;;5107610;28;20197;-78
2021/06/16 02:33:52;;;;;;;2.78;1.75;;;;;22.60;101594.00;;;;5110589;28;20205;-78
2021/06/16 02:36:21;;;;;;;4.00;1.80;;;;;22.60;101598.00;;;;5111913;28;20225;-78
2021/06/16 02:38:54;;;;;;;4.05;1.58;;;;;22.60;101586.00;;;;5102161;28;20198;-78
2021/06/16 02:41:22;;;;;;;1.55;1.27;;;;;22.60;101585.00;;;;5112017;28;20276;-78
2021/06/16 02:43:50;;;;;;;3.40;1.70;;;;;22.60;101577.00;;;;5110329;28;20201;-78
2021/06/16 02:46:18;;;;;;;1.77;1.30;;;;;22.50;101576.00;;;;5092505;28;20388;-77
2021/06/16 02:48:48;;;;;;;3.30;1.42;;;;;22.50;101575.00;;;;5110761;28;20598;-78
2021/06/16 02:51:18;;;;;;;2.38;1.33;;;;;22.50;101577.00;;;;5110994;28;20186;-78
2021/06/16 02:53:46;;;;;;;3.03;1.20;;;;;22.50;101574.00;;;;5092438;28;20198;-78
2021/06/16 02:56:14;;;;;;;1.52;1.30;;;;;22.40;101570.00;;;;5104982;28;20205;-78
2021/06/16 02:58:45;;;;;;;3.95;1.30;;;;;22.40;101566.00;;;;5110927;28;20193;-78
2021/06/16 03:01:16;;;;;;;3.30;1.60;;;;;22.30;101567.00;;;;5110845;28;20224;-78
2021/06/16 03:03:44;;;;;;;4.00;1.55;;;;;22.30;101565.00;;;;5111800;28;20197;-78
2021/06/16 03:06:12;;;;;;;2.35;1.50;;;;;22.30;101565.00;;;;5111959;28;20185;-78
2021/06/16 03:08:43;;;;;;;3.28;1.67;;;;;22.30;101566.00;;;;5110041;28;20205;-78
2021/06/16 03:11:11;;;;;;;3.75;1.48;;;;;22.20;101559.00;;;;5110705;28;20725;-78
2021/06/16 03:13:39;;;;;;;1.67;1.35;;;;;22.20;101569.00;;;;5110937;28;20201;-78
2021/06/16 03:16:08;;;;;;;2.80;1.27;;;;;22.20;101563.00;;;;5110722;28;20194;-78
2021/06/16 03:18:36;;;;;;;2.65;1.40;;;;;22.10;101566.00;;;;5110378;28;20189;-78
2021/06/16 03:21:04;;;;;;;1.65;1.27;;;;;22.10;101556.00;;;;5110667;28;20209;-78
2021/06/16 03:23:32;;;;;;;2.65;1.40;;;;;22.10;101562.00;;;;5105830;28;20688;-78
2021/06/16 03:26:02;;;;;;;2.33;1.73;;;;;22.00;101560.00;;;;5109686;28;20223;-78
2021/06/16 03:28:30;;;;;;;3.83;1.58;;;;;22.00;101560.00;;;;5110052;28;20197;-78
2021/06/16 03:31:00;;;;;;;1.65;1.23;;;;;22.00;101556.00;;;;5110514;28;20201;-78
2021/06/16 03:33:28;;;;;;;3.60;1.30;;;;;22.00;101560.00;;;;5110143;28;20762;-78
2021/06/16 03:35:57;;;;;;;4.28;1.58;;;;;21.90;101562.00;;;;5110855;28;20226;-78
2021/06/16 03:38:26;;;;;;;3.85;1.80;;;;;21.90;101561.00;;;;5108510;28;20708;-78
2021/06/16 03:40:54;;;;;;;4.25;1.27;;;;;21.90;101560.00;;;;5110331;28;20843;-78
2021/06/16 03:43:24;;;;;;;3.90;1.50;;;;;21.80;101558.00;;;;5109770;28;20212;-78
2021/06/16 03:45:52;;;;;;;2.95;1.25;;;;;21.80;101559.00;;;;5111090;28;20202;-78
2021/06/16 03:48:22;;;;;;;3.88;1.50;;;;;21.80;101553.00;;;;5110075;28;20209;-78
2021/06/16 03:50:50;;;;;;;1.80;1.38;;;;;21.80;101546.00;;;;5109848;28;20293;-77
2021/06/16 03:53:19;;;;;;;2.97;1.52;;;;;21.80;101552.00;;;;5110239;28;20659;-77
2021/06/16 03:55:49;;;;;;;3.30;1.60;;;;;21.70;101548.00;;;;5110212;28;20201;-77
2021/06/16 03:58:17;;;;;;;2.53;1.60;;;;;21.70;101542.00;;;;5110190;28;20212;-78
2021/06/16 04:00:46;;;;;;;2.40;1.45;;;;;21.70;101544.00;;;;5109555;28;20217;-78
2021/06/16 04:03:15;;;;;;;4.75;1.60;;;;;21.70;101538.00;;;;5110979;28;20205;-78
2021/06/16 04:05:43;;;;;;;4.20;1.90;;;;;21.70;101533.00;;;;5109611;28;20209;-78
2021/06/16 04:08:12;;;;;;;2.45;1.45;;;;;21.70;101530.00;;;;5109605;28;20202;-78
2021/06/16 04:10:42;;;;;;;2.60;1.38;;;;;21.70;101528.00;;;;5105771;28;20205;-78
2021/06/16 04:13:09;;;;;;;2.65;1.15;;;;;21.70;101533.00;;;;5110489;28;20190;-78
2021/06/16 04:15:37;;;;;;;2.50;1.33;;;;;21.70;101523.00;;;;5109721;28;20193;-78
2021/06/16 04:18:07;;;;;;;3.88;1.63;;;;;21.80;101531.00;;;;5109749;28;20215;-78
2021/06/16 04:20:35;;;;;;;1.92;1.20;;;;;21.80;101533.00;;;;5109830;28;20197;-78
2021/06/16 04:23:02;;;;;;;1.90;1.50;;;;;21.80;101527.00;;;;5109637;28;20202;-78
2021/06/16 04:25:29;;;;;;;1.70;1.45;;;;;21.90;101522.00;;;;5092940;28;20693;-78
2021/06/16 04:27:58;;;;;;;1.98;1.42;;;;;21.90;101527.00;;;;5102009;28;20198;-78
2021/06/16 04:30:26;;;;;;;2.42;1.17;;;;;21.90;101520.00;;;;5109428;28;20193;-78
2021/06/16 04:32:54;;;;;;;3.03;1.35;;;;;22.00;101523.00;;;;5109951;28;20197;-78
2021/06/16 04:35:23;;;;;;;5.28;1.50;;;;;22.00;101518.00;;;;5109612;28;20224;-78
2021/06/16 04:37:50;;;;;;;3.30;1.50;;;;;22.10;101519.00;;;;5109394;28;20220;-78
2021/06/16 04:40:18;;;;;;;4.18;1.60;;;;;22.10;101510.00;;;;5109298;28;20219;-77
2021/06/16 04:42:45;;;;;;;3.78;1.27;;;;;22.20;101513.00;;;;5109813;28;20224;-78
2021/06/16 04:45:14;;;;;;;4.03;1.40;;;;;22.20;101517.00;;;;5109268;28;20208;-78
2021/06/16 04:47:41;;;;;;;2.92;1.60;;;;;22.30;101518.00;;;;5104847;28;21277;-78
2021/06/16 04:50:12;;;;;;;3.28;1.45;;;;;22.30;101517.00;;;;5107816;28;20194;-78
2021/06/16 04:52:40;;;;;;;4.05;1.38;;;;;22.40;101511.00;;;;5105572;28;20205;-78
2021/06/16 04:55:10;;;;;;;4.55;1.33;;;;;22.40;101509.00;;;;5095681;28;20202;-78
2021/06/16 04:57:38;;;;;;;4.13;1.60;;;;;22.50;101508.00;;;;5101260;28;20194;-78
2021/06/16 05:00:07;;;;;;;1.80;1.50;;;;;22.50;101499.00;;;;5105862;28;20276;-78
2021/06/16 05:02:35;;;;;;;3.22;1.67;;;;;22.60;101501.00;;;;5098305;28;20244;-77
2021/06/16 05:05:02;;;;;;;3.78;1.67;;;;;22.70;101496.00;;;;5099713;28;20193;-78
2021/06/16 05:07:30;;;;;;;4.65;1.90;;;;;22.80;101500.00;;;;5108705;27;20202;-78
2021/06/16 05:09:58;;;;;;;2.78;2.03;;;;;22.80;101503.00;;;;5103129;28;20197;-78
2021/06/16 05:12:25;;;;;;;4.55;1.70;;;;;22.90;101499.00;;;;5106652;28;20880;-78
2021/06/16 05:14:53;;;;;;;2.97;1.85;;;;;23.00;101496.00;;;;5108794;28;20205;-78
2021/06/16 05:17:20;;;;;;;2.42;1.95;;;;;23.10;101494.00;;;;5100555;28;20197;-78
2021/06/16 05:19:49;;;;;;;4.47;2.10;;;;;23.20;101501.00;;;;5098822;28;20582;-78
2021/06/16 05:22:17;;;;;;;3.95;2.13;;;;;23.30;101500.00;;;;5098167;28;20599;-78
2021/06/16 05:24:44;;;;;;;4.38;1.60;;;;;23.30;101502.00;;;;5100868;28;20679;-79
2021/06/16 05:27:15;;;;;;;5.00;2.30;;;;;23.40;101499.00;;;;5103038;28;20197;-78
2021/06/16 05:29:42;;;;;;;4.65;1.67;;;;;23.50;101492.00;;;;5105221;28;20247;-77
2021/06/16 05:32:09;;;;;;;3.25;1.55;;;;;23.60;101500.00;;;;5092486;28;20190;-78
2021/06/16 05:34:37;;;;;;;5.63;2.20;;;;;23.70;101500.00;;;;5104922;28;20229;-78
2021/06/16 05:37:06;;;;;;;4.45;2.08;;;;;23.80;101509.00;;;;5107144;28;20678;-78
2021/06/16 05:39:33;;;;;;;5.80;2.15;;;;;23.90;101501.00;;;;5096009;28;20626;-78
2021/06/16 05:42:00;;;;;;;4.40;1.67;;;;;24.00;101494.00;;;;5102208;28;20646;-78
2021/06/16 05:44:29;;;;;;;3.03;1.58;;;;;24.10;101494.00;;;;5101336;28;20284;-78
2021/06/16 05:46:56;;;;;;;2.35;1.58;;;;;24.20;101494.00;;;;5107606;28;20201;-78
2021/06/16 05:49:23;;;;;;;2.72;1.88;;;;;24.30;101489.00;;;;5101085;28;20201;-79
2021/06/16 05:51:51;;;;;;;3.13;1.80;;;;;24.40;101491.00;;;;5104831;28;20571;-78
2021/06/16 05:54:18;;;;;;;2.97;1.92;;;;;24.50;101487.00;;;;5087019;28;20199;-79
2021/06/16 05:56:46;;;;;;;3.78;1.80;;;;;24.60;101488.00;;;;5087428;28;20570;-79
2021/06/16 05:59:13;;;;;;;4.90;1.63;;;;;24.70;101480.00;;;;5097991;28;20204;-78
2021/06/16 06:01:42;;;;;;;1.77;1.67;;;;;24.80;101483.00;;;;5107350;28;20224;-76
2021/06/16 06:04:09;;;;;;;4.03;1.88;;;;;24.90;101480.00;;;;5090045;28;20579;-77
2021/06/16 06:06:37;;;;;;;4.30;1.77;;;;;25.00;101475.00;;;;5108501;28;20220;-80
2021/06/16 06:09:06;;;;;;;3.15;1.50;;;;;25.10;101474.00;;;;5112491;28;20212;-80
2021/06/16 06:11:34;;;;;;;4.93;1.40;;;;;25.20;101473.00;;;;5113039;28;20208;-81
2021/06/16 06:14:02;;;;;;;4.80;1.92;;;;;25.30;101472.00;;;;5112665;28;20209;-80
2021/06/16 06:16:29;;;;;;;5.28;2.10;;;;;25.40;101468.00;;;;5112208;28;20337;-80
2021/06/16 06:18:58;;;;;;;1.85;1.40;;;;;25.40;101470.00;;;;5112662;28;20214;-80
2021/06/16 06:21:30;;;;;;;2.42;1.55;;;;;25.50;101470.00;;;;5111628;28;20667;-81
2021/06/16 06:23:57;;;;;;;5.00;1.75;;;;;25.70;101473.00;;;;5108759;28;20190;-79
2021/06/16 06:26:24;;;;;;;4.30;1.45;;;;;25.70;101472.00;;;;5100027;28;20195;-80
2021/06/16 06:28:52;;;;;;;3.15;1.90;;;;;25.80;101467.00;;;;5091924;28;20190;-80
2021/06/16 06:31:19;;;;;;;3.00;1.40;;;;;25.90;101467.00;;;;5091761;28;20274;-80
2021/06/16 06:33:47;;;;;;;3.90;2.00;;;;;26.00;101465.00;;;;5092004;28;20671;-80
2021/06/16 06:36:16;;;;;;;5.55;1.98;;;;;26.10;101467.00;;;;5097481;28;20238;-80
2021/06/16 06:38:43;;;;;;;2.20;1.67;;;;;26.20;101466.00;;;;5112385;28;20675;-80
2021/06/16 06:41:12;;;;;;;4.68;1.85;;;;;26.30;101464.00;;;;5112522;28;20206;-80
2021/06/16 06:43:39;;;;;;;2.65;1.58;;;;;26.40;101454.00;;;;5112002;28;20225;-80
2021/06/16 06:46:06;;;;;;;3.35;1.58;;;;;26.50;101462.00;;;;5112138;28;20204;-80
2021/06/16 06:48:34;;;;;;;3.38;1.73;;;;;26.60;101457.00;;;;5110999;28;20222;-80
2021/06/16 06:51:01;;;;;;;3.25;1.60;;;;;26.70;101456.00;;;;5112391;28;20208;-81
2021/06/16 06:53:30;;;;;;;4.82;1.73;;;;;26.80;101455.00;;;;5111169;28;20206;-79
2021/06/16 06:55:57;;;;;;;5.55;1.63;;;;;27.00;101451.00;;;;5112386;28;20197;-80
2021/06/16 06:58:25;;;;;;;3.92;1.52;;;;;27.10;101449.00;;;;5111275;28;20208;-80
2021/06/16 07:00:53;;;;;;;2.80;1.50;;;;;27.20;101443.00;;;;5112238;28;20281;-81
2021/06/16 07:03:20;;;;;;;3.15;1.63;;;;;27.30;101434.00;;;;5111883;28;20232;-80
2021/06/16 07:05:47;;;;;;;4.63;1.35;;;;;27.40;101431.00;;;;5111306;28;20205;-82
2021/06/16 07:08:15;;;;;;;3.53;1.30;;;;;27.50;101428.00;;;;5111640;28;20205;-80
2021/06/16 07:10:43;;;;;;;2.08;1.30;;;;;27.60;101430.00;;;;5111291;28;20198;-80
2021/06/16 07:13:11;;;;;;;1.50;1.27;;;;;27.70;101429.00;;;;5112082;28;20682;-81
2021/06/16 07:15:38;;;;;;;2.92;1.40;;;;;27.80;101418.00;;;;5111092;28;20264;-81
2021/06/16 07:18:05;;;;;;;1.40;1.30;;;;;27.90;101419.00;;;;5111205;28;20780;-80
2021/06/16 07:20:33;;;;;;;4.68;1.35;;;;;28.00;101416.00;;;;5110998;28;20209;-81
2021/06/16 07:23:00;;;;;;;3.72;1.30;;;;;28.10;101426.00;;;;5111266;28;20785;-80
2021/06/16 07:25:27;;;;;;;1.95;1.20;;;;;28.20;101428.00;;;;5093569;28;20198;-81
2021/06/16 07:27:56;;;;;;;2.58;1.42;;;;;28.30;101419.00;;;;5102658;28;20205;-80
2021/06/16 07:30:23;;;;;;;3.75;1.20;;;;;28.50;101414.00;;;;5111209;28;20197;-81
2021/06/16 07:32:53;;;;;;;2.40;1.42;;;;;28.50;101409.00;;;;5111658;28;20579;-80
2021/06/16 07:35:20;;;;;;;3.80;1.23;;;;;28.60;101406.00;;;;5111056;28;20273;-80
2021/06/16 07:37:47;;;;;;;2.40;1.40;;;;;28.80;101403.00;;;;5110990;28;20663;-80
2021/06/16 07:40:16;;;;;;;2.15;1.40;;;;;28.90;101408.00;;;;5111460;28;20194;-81
2021/06/16 07:42:44;;;;;;;2.72;1.75;;;;;29.00;101415.00;;;;5110841;28;20773;-80
2021/06/16 07:45:13;;;;;;;2.40;1.38;;;;;29.10;101414.00;;;;5111042;28;20208;-80
2021/06/16 07:47:40;;;;;;;3.05;1.48;;;;;29.20;101417.00;;;;5110148;28;20228;-80
2021/06/16 07:50:09;;;;;;;3.50;1.35;;;;;29.30;101414.00;;;;5110851;28;20663;-82
2021/06/16 07:52:37;;;;;;;1.45;1.15;;;;;29.40;101414.00;;;;5110581;28;20190;-81
2021/06/16 07:55:05;;;;;;;1.85;1.33;;;;;29.60;101413.00;;;;5109807;28;20206;-80
2021/06/16 07:57:32;;;;;;;3.03;1.30;;;;;29.70;101407.00;;;;5110091;28;20185;-82
2021/06/16 07:59:59;;;;;;;2.90;1.42;;;;;29.80;101393.00;;;;5110384;28;20194;-82
2021/06/16 08:02:29;;;;;;;3.40;1.23;;;;;29.90;101394.00;;;;5109487;28;20224;-80
2021/06/16 08:04:58;;;;;;;1.67;1.40;;;;;30.10;101397.00;;;;5109938;28;20233;-80
2021/06/16 08:07:25;;;;;;;1.70;1.35;;;;;30.20;101402.00;;;;5109389;28;20201;-80
2021/06/16 08:09:52;;;;;;;1.75;1.20;;;;;30.30;101399.00;;;;5110097;28;20200;-80
2021/06/16 08:12:19;;;;;;;1.60;1.40;;;;;30.40;101401.00;;;;5109510;28;20208;-79
2021/06/16 08:14:47;;;;;;;2.03;1.30;;;;;30.50;101398.00;;;;5110206;28;20198;-79
2021/06/16 08:17:14;;;;;;;2.88;1.40;;;;;30.60;101404.00;;;;5109215;28;20208;-79
2021/06/16 08:19:43;;;;;;;1.85;1.30;;;;;30.70;101401.00;;;;5109617;28;20912;-81
2021/06/16 08:22:13;;;;;;;1.50;1.10;;;;;30.90;101393.00;;;;5110288;28;20221;-79
2021/06/16 08:24:41;;;;;;;2.08;1.13;;;;;31.00;101401.00;;;;5109948;28;20198;-81
2021/06/16 08:27:09;;;;;;;1.98;1.00;;;;;31.20;101397.00;;;;5110240;28;20202;-79
2021/06/16 08:29:37;;;;;;;1.60;1.40;;;;;31.30;101391.00;;;;5109427;28;20270;-81
2021/06/16 08:32:05;;;;;;;3.25;1.33;;;;;31.40;101387.00;;;;5109907;28;20201;-81
2021/06/16 08:34:33;;;;;;;3.10;1.58;;;;;31.50;101388.00;;;;5109299;28;20229;-80
2021/06/16 08:37:01;;;;;;;2.65;1.48;;;;;31.60;101390.00;;;;5108556;28;20481;-81
2021/06/16 08:39:29;;;;;;;1.77;1.33;;;;;31.70;101389.00;;;;5109007;28;20205;-81
2021/06/16 08:41:56;;;;;;;4.70;1.70;;;;;31.80;101383.00;;;;5109827;28;20201;-80
2021/06/16 08:44:24;;;;;;;2.35;1.48;;;;;31.80;101382.00;;;;5108835;28;20698;-80
2021/06/16 08:46:51;;;;;;;1.92;1.55;;;;;31.90;101380.00;;;;5109732;28;20208;-79
2021/06/16 08:49:19;;;;;;;3.38;1.33;;;;;32.00;101377.00;;;;5109713;28;20185;-80
2021/06/16 08:51:46;;;;;;;2.13;1.70;;;;;32.10;101376.00;;;;5109800;28;20198;-80
2021/06/16 08:54:15;;;;;;;4.60;2.05;;;;;32.20;101371.00;;;;5109996;28;20205;-80
2021/06/16 08:56:42;;;;;;;2.30;1.70;;;;;32.30;101373.00;;;;5109742;28;20686;-81
2021/06/16 08:59:09;;;;;;;2.33;1.80;;;;;32.40;101374.00;;;;5109080;28;20201;-80
2021/06/16 09:01:37;;;;;;;3.20;2.00;;;;;32.40;101370.00;;;;5109589;28;20207;-80
2021/06/16 09:04:04;;;;;;;4.10;1.60;;;;;32.50;101364.00;;;;5109894;28;20768;-80
2021/06/16 09:06:32;;;;;;;1.67;1.58;;;;;32.60;101361.00;;;;5108927;28;20189;-80
2021/06/16 09:09:01;;;;;;;3.60;1.52;;;;;32.60;101366.00;;;;5109521;28;20209;-82
2021/06/16 09:11:32;;;;;;;3.70;1.70;;;;;32.60;101373.00;;;;5109671;28;20204;-81
2021/06/16 09:14:12;;;;;;;1.90;1.48;;;;;32.70;101364.00;;;;5109343;28;20204;-80
2021/06/16 09:16:40;;;;;;;1.73;1.63;;;;;32.80;101371.00;;;;5109329;28;20208;-80
2021/06/16 09:19:18;;;;;;;2.30;1.30;;;;;32.80;101365.00;;;;5109471;28;20216;-81
2021/06/16 09:21:46;;;;;;;2.10;1.90;;;;;33.00;101369.00;;;;5109245;28;20224;-81
2021/06/16 09:24:14;;;;;;;1.95;1.73;;;;;33.10;101371.00;;;;5107765;28;20627;-80
2021/06/16 09:26:44;;;;;;;2.30;1.80;;;;;33.10;101363.00;;;;5097207;28;20208;-81
2021/06/16 09:29:12;;;;;;;2.83;1.48;;;;;33.20;101356.00;;;;5109716;28;20211;-80
2021/06/16 09:31:40;;;;;;;2.95;1.50;;;;;33.30;101348.00;;;;5108786;28;20200;-81
2021/06/16 09:34:10;;;;;;;1.30;1.13;;;;;33.40;101349.00;;;;5109487;28;20189;-80
2021/06/16 09:36:49;;;;;;;2.78;1.60;;;;;33.50;101350.00;;;;5107988;28;20702;-80
2021/06/16 09:39:20;;;;;;;1.90;1.48;;;;;33.60;101355.00;;;;5109378;28;20204;-79
2021/06/16 09:41:57;;;;;;;2.50;1.40;;;;;33.70;101359.00;;;;5108777;28;20200;-81
2021/06/16 09:44:41;;;;;;;2.20;1.63;;;;;33.70;101352.00;;;;5107953;28;20706;-80
2021/06/16 09:47:14;;;;;;;2.10;1.23;;;;;33.80;101351.00;;;;5109022;28;20576;-80
2021/06/16 09:49:52;;;;;;;1.65;1.33;;;;;33.90;101340.00;;;;5108470;28;20205;-80
2021/06/16 09:52:37;;;;;;;2.05;1.70;;;;;33.90;101336.00;;;;5109028;28;20276;-79
2021/06/16 09:55:11;;;;;;;1.98;1.77;;;;;34.10;101339.00;;;;5108714;28;20240;-80
2021/06/16 09:57:56;;;;;;;2.33;1.63;;;;;34.10;101331.00;;;;5108006;28;20208;-80
2021/06/16 10:00:28;;;;;;;3.63;1.88;;;;;34.20;101325.00;;;;5108283;28;20209;-80
2021/06/16 10:03:09;;;;;;;1.75;1.50;;;;;34.20;101326.00;;;;5107530;28;20232;-81
2021/06/16 10:05:57;;;;;;;3.15;1.65;;;;;34.40;101335.00;;;;5108237;28;20201;-80
2021/06/16 10:08:25;;;;;;;2.35;1.77;;;;;34.40;101332.00;;;;5087891;28;20204;-81
2021/06/16 10:10:52;;;;;;;2.05;1.60;;;;;34.40;101330.00;;;;5088551;28;20206;-80
2021/06/16 10:13:24;;;;;;;3.10;1.70;;;;;34.50;101321.00;;;;5087520;28;20202;-79
2021/06/16 10:15:52;;;;;;;1.73;1.50;;;;;34.50;101326.00;;;;5088165;28;20205;-80
2021/06/16 10:18:19;;;;;;;1.67;1.58;;;;;34.60;101317.00;;;;5101904;28;20556;-81
2021/06/16 10:20:47;;;;;;;2.50;1.83;;;;;34.60;101319.00;;;;5108751;28;20197;-80
2021/06/16 10:23:14;;;;;;;2.65;1.92;;;;;34.60;101317.00;;;;5107803;28;20233;-80
2021/06/16 10:25:41;;;;;;;1.83;1.55;;;;;34.60;101314.00;;;;5107248;28;20205;-80
2021/06/16 10:28:10;;;;;;;1.92;1.75;;;;;34.60;101306.00;;;;5108032;28;20199;-80
2021/06/16 10:30:41;;;;;;;1.83;1.40;;;;;34.70;101311.00;;;;5107993;28;20208;-81
2021/06/16 10:33:33;;;;;;;3.75;2.00;;;;;34.60;101313.00;;;;5108296;28;20211;-81
2021/06/16 10:36:15;;;;;;;2.20;1.73;;;;;34.60;101313.00;;;;5107713;28;20602;-81
2021/06/16 10:39:05;;;;;;;3.13;1.73;;;;;34.70;101313.00;;;;5107080;28;20204;-81
2021/06/16 10:41:59;;;;;;;2.45;1.65;;;;;34.60;101309.00;;;;5108116;28;20201;-82
2021/06/16 10:44:28;;;;;;;2.53;1.73;;;;;34.70;101307.00;;;;5107792;28;20252;-81
2021/06/16 10:46:57;;;;;;;2.88;2.08;;;;;34.70;101304.00;;;;5108817;28;20692;-81
2021/06/16 10:49:50;;;;;;;2.28;1.92;;;;;34.60;101310.00;;;;5107866;28;20224;-81
2021/06/16 10:52:21;;;;;;;1.85;1.65;;;;;34.70;101316.00;;;;5108297;28;20287;-82
2021/06/16 10:54:59;;;;;;;3.78;2.03;;;;;34.60;101315.00;;;;5110655;28;20620;-81
2021/06/16 10:57:28;;;;;;;2.03;1.83;;;;;34.70;101317.00;;;;5111683;28;20290;-81
2021/06/16 11:00:14;;;;;;;2.53;2.15;;;;;34.70;101315.00;;;;5112310;28;20205;-80
2021/06/16 11:03:08;;;;;;;5.70;2.83;;;;;34.70;101312.00;;;;5111383;28;20220;-82
2021/06/16 11:05:44;;;;;;;1.98;1.80;;;;;34.80;101310.00;;;;5111471;28;20651;-81
2021/06/16 11:08:26;;;;;;;3.67;2.60;;;;;34.90;101305.00;;;;5111931;28;20222;-82
2021/06/16 11:10:57;;;;;;;3.08;2.05;;;;;34.90;101313.00;;;;5111774;28;20197;-81
2021/06/16 11:13:41;;;;;;;2.63;2.42;;;;;34.80;101308.00;;;;5110900;28;20193;-80
2021/06/16 11:16:53;;;;;;;4.28;2.70;;;;;34.80;101302.00;;;;5111062;28;20197;-81
2021/06/16 11:19:43;;;;;;;3.63;2.92;;;;;34.90;101293.00;;;;5111594;28;20626;-81
2021/06/16 11:22:36;;;;;;;4.28;2.88;;;;;34.80;101290.00;;;;5107396;28;20208;-82
2021/06/16 11:25:26;;;;;;;2.60;2.40;;;;;34.90;101296.00;;;;5103213;28;20224;-82
2021/06/16 11:28:12;;;;;;;3.63;2.60;;;;;34.80;101288.00;;;;5111314;28;20213;-81
2021/06/16 11:30:50;;;;;;;3.78;2.75;;;;;34.90;101290.00;;;;5107139;28;20200;-81
2021/06/16 11:33:35;;;;;;;3.65;2.65;;;;;34.90;101287.00;;;;5110680;28;20258;-81
2021/06/16 11:36:08;;;;;;;3.63;2.72;;;;;34.90;101275.00;;;;5111148;28;20278;-81
2021/06/16 11:38:38;;;;;;;4.13;2.13;;;;;34.90;101268.00;;;;5110692;28;20204;-79
2021/06/16 11:41:10;;;;;;;4.55;2.85;;;;;34.90;101271.00;;;;5111200;28;20643;-82
2021/06/16 11:43:39;;;;;;;3.42;2.63;;;;;34.90;101267.00;;;;5109445;28;20613;-82
2021/06/16 11:46:14;;;;;;;4.43;2.72;;;;;34.90;101268.00;;;;5109385;28;20208;-82
2021/06/16 11:48:43;;;;;;;2.85;2.20;;;;;34.90;101255.00;;;;5110939;28;20216;-81
2021/06/16 11:51:10;;;;;;;4.20;2.50;;;;;34.90;101248.00;;;;5111379;28;20208;-79
2021/06/16 11:53:39;;;;;;;3.05;2.45;;;;;34.90;101252.00;;;;5109972;28;20208;-79
2021/06/16 11:56:10;;;;;;;2.92;2.30;;;;;34.90;101252.00;;;;5110677;28;20193;-78
2021/06/16 11:58:39;;;;;;;2.70;2.50;;;;;35.00;101244.00;;;;5110475;28;20209;-81
2021/06/16 12:01:16;;;;;;;3.78;2.80;;;;;34.90;101241.00;;;;5094282;28;21308;-80
2021/06/16 12:03:45;;;;;;;2.88;2.45;;;;;35.00;101243.00;;;;5108835;28;20217;-81
2021/06/16 12:06:14;;;;;;;5.13;2.70;;;;;35.00;101241.00;;;;5110387;28;20257;-81
2021/06/16 12:08:43;;;;;;;3.78;3.03;;;;;35.00;101236.00;;;;5109453;28;20204;-80
2021/06/16 12:11:21;;;;;;;2.90;2.28;;;;;35.00;101235.00;;;;5110411;28;20204;-80
2021/06/16 12:14:00;;;;;;;2.70;2.42;;;;;35.00;101239.00;;;;5110544;28;20197;-80
2021/06/16 12:16:31;;;;;;;5.20;2.50;;;;;35.00;101236.00;;;;5110304;28;20578;-80
2021/06/16 12:19:19;;;;;;;2.90;2.70;;;;;35.00;101235.00;;;;5109890;28;20200;-80
2021/06/16 12:21:55;;;;;;;4.72;3.10;;;;;35.00;101229.00;;;;5108838;28;20239;-81
2021/06/16 12:24:25;;;;;;;4.28;2.92;;;;;35.00;101235.00;;;;5104867;28;20225;-79